Copper Mountain, CO

7:54 AM MDT on September 19, 2014 (GMT -0600)
Frisco Downtown Main and 1st | Change Station
CLOSE
Current Station
Personal Weather Station
Location: Frisco, CO
Elevation: 9091 ft
Nearby Weather Stations

Elev 9091 ft 39.57 °N, 106.10 °W | Updated 2 seconds ago

Clear
Clear
43.4 °F
Feels Like 43 °F
N
0.0
Wind Variable Wind from ENE
Gusts 0.0 mph

Today
High -- | Low -- °F
--% Chance of Precip.
Yesterday
High -- | Low -- °F
Precip. -- in
6:49 AM 7:06 PM
Waning Crescent, 19% visible
Pressure 30.35 in
Visibility 10.0 miles
Clouds Clear
Windchill 43 °F
Dew Point 31 °F
Humidity 61%
Rainfall 0.00 in
Snow Depth 0 in , 0 in , 0 in
UV 0 out of 12
Pollen 7.50 out of 12
Air Quality Not available.
Flu Activity Not available.
METAR KLXV 191253Z AUTO 00000KT 10SM CLR 03/M03 A3035

More Conditions Fewer Conditions

Pressure 30.35 in
Visibility 10.0 miles
Clouds Clear
Windchill 43 °F
Dew Point 31 °F
Humidity 61%
Rainfall 0.00 in
Snow Depth 0 in , 0 in , 0 in
UV 0 out of 12
Pollen 7.50 out of 12
Air Quality Not available.
Flu Activity Not available.
METAR KLXV 191253Z AUTO 00000KT 10SM CLR 03/M03 A3035

More Conditions Fewer Conditions

10-Day Weather Forecast

Almanac

Astronomy

Sep. 19, 2014 Rise Set
Actual Time 6:49 AM MDT 7:06 PM MDT
Civil Twilight 6:22 AM MDT 7:33 PM MDT
Nautical Twilight 5:50 AM MDT 8:04 PM MDT
Astronomical Twilight 5:18 AM MDT 8:36 PM MDT
Moon 2:37 AM MDT 4:36 PM MDT
Length of Visible Light 13h 10m
Length of Day
12h 16m
Tomorrow will be 2m 34s shorter.
Waning Crescent, 19% of the Moon is Illuminated
Today
Waning Crescent
Sep 24
New
Oct 1
First Quarter
Oct 8
Full
Oct 15
Last Quarter

Today's Extremes

State Highs State Lows

Community

WunderPhotos

Upload Photos

1,754,608 photos uploaded!

WunderBlogs® & News

Nearby

Snow Depth

Station Depth Elevation
Porphyry Creek 0 in 10760 ft
Beartown 0 in 11600 ft
Niwot 0 in 9910 ft
Sharkstooth 2 in 10720 ft
Columbine 0 in 9160 ft

Earthquake Activity

City Distance Mag. Time & Date
No recent earthquake activity has been reported nearby.
Minimum magnitude displayed is 2.5.

Coastal Water Temperatures

Place Temperature
No Stations Reporting

Nearby Weather Stations